sensor_id;sensor_type;location;lat;lon;timestamp;pressure;altitude;pressure_sealevel;temperature;humidity
70229;BME280;57617;51.988;5.854;2023-03-25T00:00:55;99693.63;;;12.51;65.50
70229;BME280;57617;51.988;5.854;2023-03-25T00:03:29;99698.50;;;12.54;65.41
70229;BME280;57617;51.988;5.854;2023-03-25T00:05:55;99702.56;;;12.56;65.37
70229;BME280;57617;51.988;5.854;2023-03-25T00:08:23;99700.69;;;12.57;65.48
70229;BME280;57617;51.988;5.854;2023-03-25T00:10:57;99698.22;;;12.55;65.80
70229;BME280;57617;51.988;5.854;2023-03-25T00:13:23;99703.16;;;12.53;65.82
70229;BME280;57617;51.988;5.854;2023-03-25T00:15:50;99687.13;;;12.47;65.61
70229;BME280;57617;51.988;5.854;2023-03-25T00:18:19;99692.00;;;12.50;65.73
70229;BME280;57617;51.988;5.854;2023-03-25T00:20:45;99691.47;;;12.48;65.60
70229;BME280;57617;51.988;5.854;2023-03-25T00:23:17;99695.84;;;12.44;66.24
70229;BME280;57617;51.988;5.854;2023-03-25T00:25:42;99697.47;;;12.45;66.10
70229;BME280;57617;51.988;5.854;2023-03-25T00:28:10;99690.66;;;12.47;65.79
70229;BME280;57617;51.988;5.854;2023-03-25T00:30:38;99698.53;;;12.49;65.89
70229;BME280;57617;51.988;5.854;2023-03-25T00:33:03;99696.63;;;12.49;66.11
70229;BME280;57617;51.988;5.854;2023-03-25T00:35:28;99686.84;;;12.48;65.88
70229;BME280;57617;51.988;5.854;2023-03-25T00:37:54;99687.94;;;12.47;65.80
70229;BME280;57617;51.988;5.854;2023-03-25T00:40:29;99690.94;;;12.46;66.13
70229;BME280;57617;51.988;5.854;2023-03-25T00:42:59;99690.66;;;12.47;65.83
70229;BME280;57617;51.988;5.854;2023-03-25T00:45:24;99695.53;;;12.50;66.28
70229;BME280;57617;51.988;5.854;2023-03-25T00:47:49;99684.38;;;12.47;66.03
70229;BME280;57617;51.988;5.854;2023-03-25T00:50:15;99692.84;;;12.45;66.02
70229;BME280;57617;51.988;5.854;2023-03-25T00:52:40;99696.91;;;12.48;66.10
70229;BME280;57617;51.988;5.854;2023-03-25T00:55:06;99680.59;;;12.43;65.67
70229;BME280;57617;51.988;5.854;2023-03-25T00:57:32;99686.88;;;12.43;65.85
70229;BME280;57617;51.988;5.854;2023-03-25T00:59:57;99694.22;;;12.43;66.29
70229;BME280;57617;51.988;5.854;2023-03-25T01:02:23;99685.75;;;12.44;65.97
70229;BME280;57617;51.988;5.854;2023-03-25T01:04:48;99679.50;;;12.44;65.65
70229;BME280;57617;51.988;5.854;2023-03-25T01:07:15;99677.34;;;12.41;65.69
70229;BME280;57617;51.988;5.854;2023-03-25T01:09:41;99673.00;;;12.40;65.50
70229;BME280;57617;51.988;5.854;2023-03-25T01:12:07;99679.78;;;12.42;65.82
70229;BME280;57617;51.988;5.854;2023-03-25T01:14:32;99684.16;;;12.43;65.95
70229;BME280;57617;51.988;5.854;2023-03-25T01:16:59;99676.00;;;12.38;65.89
70229;BME280;57617;51.988;5.854;2023-03-25T01:19:24;99675.41;;;12.41;65.21
70229;BME280;57617;51.988;5.854;2023-03-25T01:21:50;99670.56;;;12.38;65.59
70229;BME280;57617;51.988;5.854;2023-03-25T01:24:15;99670.81;;;12.37;65.33
70229;BME280;57617;51.988;5.854;2023-03-25T01:26:41;99674.38;;;12.37;65.35
70229;BME280;57617;51.988;5.854;2023-03-25T01:29:12;99676.78;;;12.39;65.38
70229;BME280;57617;51.988;5.854;2023-03-25T01:31:38;99677.88;;;12.43;65.22
70229;BME280;57617;51.988;5.854;2023-03-25T01:34:03;99675.41;;;12.41;65.17
70229;BME280;57617;51.988;5.854;2023-03-25T01:36:29;99657.22;;;12.32;65.34
70229;BME280;57617;51.988;5.854;2023-03-25T01:38:56;99667.84;;;12.33;64.87
70229;BME280;57617;51.988;5.854;2023-03-25T01:41:23;99676.78;;;12.39;64.93
70229;BME280;57617;51.988;5.854;2023-03-25T01:44:08;99672.16;;;12.39;64.67
70229;BME280;57617;51.988;5.854;2023-03-25T01:46:34;99670.56;;;12.38;65.18
70229;BME280;57617;51.988;5.854;2023-03-25T01:49:04;99672.16;;;12.39;65.38
70229;BME280;57617;51.988;5.854;2023-03-25T01:51:33;99662.63;;;12.42;64.75
70229;BME280;57617;51.988;5.854;2023-03-25T01:54:01;99663.75;;;12.36;65.10
70229;BME280;57617;51.988;5.854;2023-03-25T01:56:32;99661.56;;;12.33;65.09
70229;BME280;57617;51.988;5.854;2023-03-25T01:59:02;99661.88;;;12.31;65.00
70229;BME280;57617;51.988;5.854;2023-03-25T02:01:28;99673.00;;;12.40;64.78
70229;BME280;57617;51.988;5.854;2023-03-25T02:03:56;99664.31;;;12.33;65.14
70229;BME280;57617;51.988;5.854;2023-03-25T02:06:34;99671.66;;;12.37;65.54
70229;BME280;57617;51.988;5.854;2023-03-25T02:09:03;99654.81;;;12.25;65.52
70229;BME280;57617;51.988;5.854;2023-03-25T02:11:30;99662.44;;;12.28;65.37
70229;BME280;57617;51.988;5.854;2023-03-25T02:13:58;99654.31;;;12.18;65.55
70229;BME280;57617;51.988;5.854;2023-03-25T02:16:31;99667.91;;;12.18;65.79
70229;BME280;57617;51.988;5.854;2023-03-25T02:38:37;99649.78;;;11.99;67.71
70229;BME280;57617;51.988;5.854;2023-03-25T02:41:22;99662.28;;;12.00;67.49
70229;BME280;57617;51.988;5.854;2023-03-25T02:44:01;99653.03;;;11.96;67.54
70229;BME280;57617;51.988;5.854;2023-03-25T02:46:30;99654.69;;;11.87;67.80
70229;BME280;57617;51.988;5.854;2023-03-25T02:49:00;99658.50;;;11.86;67.56
70229;BME280;57617;51.988;5.854;2023-03-25T02:51:30;99674.59;;;11.82;67.75
70229;BME280;57617;51.988;5.854;2023-03-25T02:54:01;99658.25;;;11.82;68.24
70229;BME280;57617;51.988;5.854;2023-03-25T02:56:28;99650.63;;;11.84;68.34
70229;BME280;57617;51.988;5.854;2023-03-25T02:58:58;99649.28;;;11.77;68.53
70229;BME280;57617;51.988;5.854;2023-03-25T03:01:25;99650.94;;;11.78;68.34
70229;BME280;57617;51.988;5.854;2023-03-25T03:03:53;99658.53;;;11.76;68.60
70229;BME280;57617;51.988;5.854;2023-03-25T03:06:20;99647.38;;;11.77;68.50
70229;BME280;57617;51.988;5.854;2023-03-25T03:11:20;99634.09;;;11.66;68.87
70229;BME280;57617;51.988;5.854;2023-03-25T03:14:07;99647.69;;;11.71;69.60
70229;BME280;57617;51.988;5.854;2023-03-25T03:16:41;99650.66;;;11.69;69.12
70229;BME280;57617;51.988;5.854;2023-03-25T03:22:00;99640.34;;;11.66;68.97
70229;BME280;57617;51.988;5.854;2023-03-25T03:24:56;99640.63;;;11.65;69.51
70229;BME280;57617;51.988;5.854;2023-03-25T03:27:32;99649.31;;;11.67;69.36
70229;BME280;57617;51.988;5.854;2023-03-25T03:32:55;99641.97;;;11.57;70.03
70229;BME280;57617;51.988;5.854;2023-03-25T03:35:47;99645.25;;;11.59;69.95
70229;BME280;57617;51.988;5.854;2023-03-25T03:38:18;99647.41;;;11.57;69.47
70229;BME280;57617;51.988;5.854;2023-03-25T03:40:51;99637.63;;;11.51;69.67
70229;BME280;57617;51.988;5.854;2023-03-25T03:43:24;99644.69;;;11.57;69.95
70229;BME280;57617;51.988;5.854;2023-03-25T03:45:55;99649.91;;;11.59;69.97
70229;BME280;57617;51.988;5.854;2023-03-25T03:48:35;99646.59;;;11.57;70.34
70229;BME280;57617;51.988;5.854;2023-03-25T03:51:08;99648.25;;;11.53;70.34
70229;BME280;57617;51.988;5.854;2023-03-25T03:53:39;99649.03;;;11.53;69.74
70229;BME280;57617;51.988;5.854;2023-03-25T03:56:12;99650.72;;;11.49;70.08
70229;BME280;57617;51.988;5.854;2023-03-25T03:58:41;99648.78;;;11.55;70.32
70229;BME280;57617;51.988;5.854;2023-03-25T04:01:12;99651.22;;;11.56;70.42
70229;BME280;57617;51.988;5.854;2023-03-25T04:03:49;99649.31;;;11.57;70.42
70229;BME280;57617;51.988;5.854;2023-03-25T04:06:30;99653.41;;;11.59;69.90
70229;BME280;57617;51.988;5.854;2023-03-25T04:09:09;99641.97;;;11.57;70.33
70229;BME280;57617;51.988;5.854;2023-03-25T04:11:45;99653.69;;;11.63;69.75
70229;BME280;57617;51.988;5.854;2023-03-25T04:14:12;99621.84;;;11.58;69.96
70229;BME280;57617;51.988;5.854;2023-03-25T04:16:38;99649.06;;;11.63;70.01
70229;BME280;57617;51.988;5.854;2023-03-25T04:19:05;99642.53;;;11.59;70.01
70229;BME280;57617;51.988;5.854;2023-03-25T04:21:31;99624.56;;;11.53;70.23
70229;BME280;57617;51.988;5.854;2023-03-25T04:23:56;99633.31;;;11.60;69.89
70229;BME280;57617;51.988;5.854;2023-03-25T04:26:26;99634.38;;;11.59;70.08
70229;BME280;57617;51.988;5.854;2023-03-25T04:28:54;99637.63;;;11.56;69.98
70229;BME280;57617;51.988;5.854;2023-03-25T04:31:19;99628.94;;;11.59;70.08
70229;BME280;57617;51.988;5.854;2023-03-25T04:33:45;99633.00;;;11.62;69.94
70229;BME280;57617;51.988;5.854;2023-03-25T04:36:12;99633.56;;;11.59;70.36
70229;BME280;57617;51.988;5.854;2023-03-25T04:38:38;99629.75;;;11.60;69.87
70229;BME280;57617;51.988;5.854;2023-03-25T04:41:05;99628.66;;;11.56;69.87
70229;BME280;57617;51.988;5.854;2023-03-25T04:43:31;99621.31;;;11.56;70.24
70229;BME280;57617;51.988;5.854;2023-03-25T04:45:57;99621.03;;;11.58;70.23
70229;BME280;57617;51.988;5.854;2023-03-25T04:48:29;99621.84;;;11.58;70.33
70229;BME280;57617;51.988;5.854;2023-03-25T04:50:56;99615.88;;;11.56;69.84
70229;BME280;57617;51.988;5.854;2023-03-25T04:53:23;99620.22;;;11.57;70.04
70229;BME280;57617;51.988;5.854;2023-03-25T04:55:48;99615.59;;;11.58;70.32
70229;BME280;57617;51.988;5.854;2023-03-25T04:58:14;99616.41;;;11.58;70.23
70229;BME280;57617;51.988;5.854;2023-03-25T05:00:40;99613.69;;;11.58;69.78
70229;BME280;57617;51.988;5.854;2023-03-25T05:03:08;99612.91;;;11.53;69.76
70229;BME280;57617;51.988;5.854;2023-03-25T05:05:34;99612.09;;;11.47;69.89
70229;BME280;57617;51.988;5.854;2023-03-25T05:07:59;99616.72;;;11.52;69.77
70229;BME280;57617;51.988;5.854;2023-03-25T05:10:26;99622.69;;;11.54;69.79
70229;BME280;57617;51.988;5.854;2023-03-25T05:13:01;99617.50;;;11.57;69.83
70229;BME280;57617;51.988;5.854;2023-03-25T05:15:28;99621.59;;;11.60;69.67
70229;BME280;57617;51.988;5.854;2023-03-25T05:17:55;99624.03;;;11.56;69.70
70229;BME280;57617;51.988;5.854;2023-03-25T05:20:20;99628.13;;;11.59;69.91
70229;BME280;57617;51.988;5.854;2023-03-25T05:22:48;99625.41;;;11.59;69.86
70229;BME280;57617;51.988;5.854;2023-03-25T05:25:13;99627.88;;;11.60;69.60
70229;BME280;57617;51.988;5.854;2023-03-25T05:27:38;99626.78;;;11.61;69.88
70229;BME280;57617;51.988;5.854;2023-03-25T05:30:05;99610.44;;;11.56;69.30
70229;BME280;57617;51.988;5.854;2023-03-25T05:32:31;99606.91;;;11.61;69.62
70229;BME280;57617;51.988;5.854;2023-03-25T05:35:00;99608.25;;;11.58;69.81
70229;BME280;57617;51.988;5.854;2023-03-25T05:37:27;99620.50;;;11.61;69.33
70229;BME280;57617;51.988;5.854;2023-03-25T05:39:52;99627.28;;;11.58;69.60
70229;BME280;57617;51.988;5.854;2023-03-25T05:42:18;99636.00;;;11.55;69.43
70229;BME280;57617;51.988;5.854;2023-03-25T05:44:50;99629.47;;;11.56;69.63
70229;BME280;57617;51.988;5.854;2023-03-25T05:47:17;99649.06;;;11.48;69.75
70229;BME280;57617;51.988;5.854;2023-03-25T05:49:44;99651.25;;;11.51;69.49
70229;BME280;57617;51.988;5.854;2023-03-25T05:52:10;99648.50;;;11.56;69.30
70229;BME280;57617;51.988;5.854;2023-03-25T05:54:35;99646.88;;;11.55;69.58
70229;BME280;57617;51.988;5.854;2023-03-25T05:57:05;99640.88;;;11.53;69.45
70229;BME280;57617;51.988;5.854;2023-03-25T05:59:31;99644.16;;;11.55;69.71
70229;BME280;57617;51.988;5.854;2023-03-25T06:01:57;99644.16;;;11.55;69.25
70229;BME280;57617;51.988;5.854;2023-03-25T06:04:22;99660.47;;;11.55;69.67
70229;BME280;57617;51.988;5.854;2023-03-25T06:06:48;99655.31;;;11.54;69.56
70229;BME280;57617;51.988;5.854;2023-03-25T06:09:14;99666.44;;;11.57;69.49
70229;BME280;57617;51.988;5.854;2023-03-25T06:11:42;99661.56;;;11.59;69.69
70229;BME280;57617;51.988;5.854;2023-03-25T06:14:08;99664.56;;;11.58;69.45
70229;BME280;57617;51.988;5.854;2023-03-25T06:16:33;99660.75;;;11.54;69.48
70229;BME280;57617;51.988;5.854;2023-03-25T06:18:59;99656.94;;;11.50;69.81
70229;BME280;57617;51.988;5.854;2023-03-25T06:21:26;99667.03;;;11.49;70.14
70229;BME280;57617;51.988;5.854;2023-03-25T06:23:53;99659.94;;;11.48;69.63
70229;BME280;57617;51.988;5.854;2023-03-25T06:26:20;99670.53;;;11.50;70.08
70229;BME280;57617;51.988;5.854;2023-03-25T06:28:46;99682.25;;;11.50;70.01
70229;BME280;57617;51.988;5.854;2023-03-25T06:31:16;99674.09;;;11.45;70.26
70229;BME280;57617;51.988;5.854;2023-03-25T06:33:43;99664.84;;;11.36;70.35
70229;BME280;57617;51.988;5.854;2023-03-25T06:36:10;99670.28;;;11.41;70.69
70229;BME280;57617;51.988;5.854;2023-03-25T06:38:37;99674.63;;;11.47;70.38
70229;BME280;57617;51.988;5.854;2023-03-25T06:41:03;99679.78;;;11.49;70.10
70229;BME280;57617;51.988;5.854;2023-03-25T06:43:28;99686.06;;;11.49;70.30
70229;BME280;57617;51.988;5.854;2023-03-25T06:45:54;99685.75;;;11.51;70.22
70229;BME280;57617;51.988;5.854;2023-03-25T06:48:19;99686.59;;;11.51;70.31
70229;BME280;57617;51.988;5.854;2023-03-25T06:50:44;99696.91;;;11.54;70.37
70229;BME280;57617;51.988;5.854;2023-03-25T06:53:10;99701.28;;;11.55;70.33
70229;BME280;57617;51.988;5.854;2023-03-25T06:55:36;99697.19;;;11.58;70.50
70229;BME280;57617;51.988;5.854;2023-03-25T06:58:01;99700.47;;;11.60;70.04
70229;BME280;57617;51.988;5.854;2023-03-25T07:00:26;99696.66;;;11.61;69.89
70229;BME280;57617;51.988;5.854;2023-03-25T07:02:53;99696.66;;;11.61;70.13
70229;BME280;57617;51.988;5.854;2023-03-25T07:05:18;99691.78;;;11.63;69.96
70229;BME280;57617;51.988;5.854;2023-03-25T07:07:43;99687.97;;;11.59;70.17
70229;BME280;57617;51.988;5.854;2023-03-25T07:10:13;99678.19;;;11.63;69.93
70229;BME280;57617;51.988;5.854;2023-03-25T07:12:38;99689.03;;;11.68;69.49
70229;BME280;57617;51.988;5.854;2023-03-25T07:15:05;99681.16;;;11.71;69.74
70229;BME280;57617;51.988;5.854;2023-03-25T07:17:30;99682.22;;;11.75;70.00
70229;BME280;57617;51.988;5.854;2023-03-25T07:19:55;99680.88;;;11.78;69.56
70229;BME280;57617;51.988;5.854;2023-03-25T07:22:21;99688.72;;;11.79;69.30
70229;BME280;57617;51.988;5.854;2023-03-25T07:24:46;99683.28;;;11.79;68.76
70229;BME280;57617;51.988;5.854;2023-03-25T07:27:13;99692.53;;;11.78;69.67
70229;BME280;57617;51.988;5.854;2023-03-25T07:29:39;99696.88;;;11.79;69.31
70229;BME280;57617;51.988;5.854;2023-03-25T07:32:05;99697.19;;;11.73;69.14
70229;BME280;57617;51.988;5.854;2023-03-25T07:34:30;99699.34;;;11.76;69.42
70229;BME280;57617;51.988;5.854;2023-03-25T07:36:56;99693.91;;;11.71;69.63
70229;BME280;57617;51.988;5.854;2023-03-25T07:39:21;99707.25;;;11.72;69.39
70229;BME280;57617;51.988;5.854;2023-03-25T07:41:51;99693.66;;;11.67;69.41
70229;BME280;57617;51.988;5.854;2023-03-25T07:44:17;99709.44;;;11.70;69.78
70229;BME280;57617;51.988;5.854;2023-03-25T07:46:47;99718.13;;;11.67;69.32
70229;BME280;57617;51.988;5.854;2023-03-25T07:49:13;99721.94;;;11.66;69.47
70229;BME280;57617;51.988;5.854;2023-03-25T07:51:39;99711.59;;;11.63;70.00
70229;BME280;57617;51.988;5.854;2023-03-25T07:54:04;99710.22;;;11.56;69.60
70229;BME280;57617;51.988;5.854;2023-03-25T07:56:30;99711.84;;;11.57;69.89
70229;BME280;57617;51.988;5.854;2023-03-25T07:58:55;99724.69;;;11.61;69.94
70229;BME280;57617;51.988;5.854;2023-03-25T08:01:20;99701.81;;;11.52;70.05
70229;BME280;57617;51.988;5.854;2023-03-25T08:03:46;99719.75;;;11.68;69.73
70229;BME280;57617;51.988;5.854;2023-03-25T08:06:11;99721.38;;;11.69;70.16
70229;BME280;57617;51.988;5.854;2023-03-25T08:08:37;99726.81;;;11.74;70.07
70229;BME280;57617;51.988;5.854;2023-03-25T08:11:02;99728.19;;;11.77;69.71
70229;BME280;57617;51.988;5.854;2023-03-25T08:13:28;99737.44;;;11.76;70.12
70229;BME280;57617;51.988;5.854;2023-03-25T08:15:53;99729.53;;;11.74;70.07
70229;BME280;57617;51.988;5.854;2023-03-25T08:18:19;99736.34;;;11.77;70.50
70229;BME280;57617;51.988;5.854;2023-03-25T08:20:45;99738.81;;;11.73;70.21
70229;BME280;57617;51.988;5.854;2023-03-25T08:23:11;99726.56;;;11.76;70.12
70229;BME280;57617;51.988;5.854;2023-03-25T08:25:42;99731.72;;;11.82;70.10
70229;BME280;57617;51.988;5.854;2023-03-25T08:28:07;99733.31;;;11.93;70.57
70229;BME280;57617;51.988;5.854;2023-03-25T08:30:35;99731.16;;;11.90;70.42
70229;BME280;57617;51.988;5.854;2023-03-25T08:33:07;99738.22;;;11.96;69.90
70229;BME280;57617;51.988;5.854;2023-03-25T08:35:34;99730.06;;;12.01;69.98
70229;BME280;57617;51.988;5.854;2023-03-25T08:37:59;99738.19;;;12.06;69.43
70229;BME280;57617;51.988;5.854;2023-03-25T08:40:26;99739.25;;;12.15;69.79
70229;BME280;57617;51.988;5.854;2023-03-25T08:42:52;99743.63;;;12.16;69.29
70229;BME280;57617;51.988;5.854;2023-03-25T08:45:17;99733.78;;;12.20;69.74
70229;BME280;57617;51.988;5.854;2023-03-25T08:47:43;99724.81;;;12.20;69.15
70229;BME280;57617;51.988;5.854;2023-03-25T08:50:09;99732.41;;;12.28;68.87
70229;BME280;57617;51.988;5.854;2023-03-25T08:52:35;99736.69;;;12.39;69.25
70229;BME280;57617;51.988;5.854;2023-03-25T08:55:00;99731.53;;;12.47;69.50
70229;BME280;57617;51.988;5.854;2023-03-25T08:57:26;99735.53;;;12.65;69.29
70229;BME280;57617;51.988;5.854;2023-03-25T08:59:51;99737.63;;;12.73;69.36
70229;BME280;57617;51.988;5.854;2023-03-25T09:02:17;99739.84;;;12.71;69.35
70229;BME280;57617;51.988;5.854;2023-03-25T09:04:42;99745.50;;;12.79;69.30
70229;BME280;57617;51.988;5.854;2023-03-25T09:07:07;99752.34;;;12.77;68.90
70229;BME280;57617;51.988;5.854;2023-03-25T09:09:36;99736.59;;;12.64;69.49
70229;BME280;57617;51.988;5.854;2023-03-25T09:12:01;99749.47;;;12.53;69.59
70229;BME280;57617;51.988;5.854;2023-03-25T09:14:27;99744.84;;;12.44;69.33
70229;BME280;57617;51.988;5.854;2023-03-25T09:16:52;99739.72;;;12.37;69.62
70229;BME280;57617;51.988;5.854;2023-03-25T09:19:17;99734.03;;;12.34;69.49
70229;BME280;57617;51.988;5.854;2023-03-25T09:21:43;99740.84;;;12.31;69.86
70229;BME280;57617;51.988;5.854;2023-03-25T09:24:08;99735.41;;;12.31;69.85
70229;BME280;57617;51.988;5.854;2023-03-25T09:26:34;99719.84;;;12.32;69.85
70229;BME280;57617;51.988;5.854;2023-03-25T09:29:00;99733.75;;;12.30;69.36
70229;BME280;57617;51.988;5.854;2023-03-25T09:31:25;99741.38;;;12.28;69.67
70229;BME280;57617;51.988;5.854;2023-03-25T09:33:51;99748.47;;;12.29;69.77
70229;BME280;57617;51.988;5.854;2023-03-25T09:36:16;99739.50;;;12.24;70.28
70229;BME280;57617;51.988;5.854;2023-03-25T09:38:41;99743.25;;;12.33;70.05
70229;BME280;57617;51.988;5.854;2023-03-25T09:46:25;99750.63;;;12.37;70.45
70229;BME280;57617;51.988;5.854;2023-03-25T09:48:52;99744.63;;;12.35;70.38
70229;BME280;57617;51.988;5.854;2023-03-25T09:51:34;99760.97;;;12.30;70.60
70229;BME280;57617;51.988;5.854;2023-03-25T09:56:52;99758.81;;;12.32;70.34
70229;BME280;57617;51.988;5.854;2023-03-25T09:59:24;99761.50;;;12.37;70.66
70229;BME280;57617;51.988;5.854;2023-03-25T10:02:03;99757.09;;;12.46;70.80
70229;BME280;57617;51.988;5.854;2023-03-25T10:04:39;99755.41;;;12.60;71.65
70229;BME280;57617;51.988;5.854;2023-03-25T10:07:33;99747.38;;;12.84;71.17
70229;BME280;57617;51.988;5.854;2023-03-25T10:10:26;99740.78;;;12.95;71.46
70229;BME280;57617;51.988;5.854;2023-03-25T10:15:43;99751.22;;;13.26;70.61
70229;BME280;57617;51.988;5.854;2023-03-25T10:26:43;99763.63;;;13.47;68.90
70229;BME280;57617;51.988;5.854;2023-03-25T10:29:13;99760.09;;;13.47;69.79
70229;BME280;57617;51.988;5.854;2023-03-25T10:31:48;99774.53;;;13.47;69.30
70229;BME280;57617;51.988;5.854;2023-03-25T10:34:17;99762.03;;;13.41;69.30
70229;BME280;57617;51.988;5.854;2023-03-25T10:36:49;99766.09;;;13.44;69.12
70229;BME280;57617;51.988;5.854;2023-03-25T10:39:18;99777.06;;;13.39;68.42
70229;BME280;57617;51.988;5.854;2023-03-25T10:41:55;99772.22;;;13.26;68.75
70229;BME280;57617;51.988;5.854;2023-03-25T10:44:24;99783.72;;;13.23;68.98
70229;BME280;57617;51.988;5.854;2023-03-25T10:46:55;99770.31;;;13.26;69.40
70229;BME280;57617;51.988;5.854;2023-03-25T10:49:25;99786.72;;;13.21;69.60
70229;BME280;57617;51.988;5.854;2023-03-25T10:51:51;99784.56;;;13.18;69.76
70229;BME280;57617;51.988;5.854;2023-03-25T10:54:24;99776.69;;;13.12;69.71
70229;BME280;57617;51.988;5.854;2023-03-25T10:56:52;99779.69;;;13.10;69.51
70229;BME280;57617;51.988;5.854;2023-03-25T10:59:29;99782.72;;;13.04;69.78
70229;BME280;57617;51.988;5.854;2023-03-25T11:01:57;99792.28;;;13.01;69.76
70229;BME280;57617;51.988;5.854;2023-03-25T11:04:37;99784.09;;;13.06;69.91
70229;BME280;57617;51.988;5.854;2023-03-25T11:07:15;99786.25;;;13.09;70.35
70229;BME280;57617;51.988;5.854;2023-03-25T11:09:41;99790.59;;;13.10;70.12
70229;BME280;57617;51.988;5.854;2023-03-25T11:12:06;99781.34;;;13.06;69.92
70229;BME280;57617;51.988;5.854;2023-03-25T11:14:36;99786.84;;;13.01;69.34
70229;BME280;57617;51.988;5.854;2023-03-25T11:17:07;99779.50;;;13.02;69.88
70229;BME280;57617;51.988;5.854;2023-03-25T11:19:40;99788.16;;;13.09;69.92
70229;BME280;57617;51.988;5.854;2023-03-25T11:22:17;99779.16;;;13.13;69.71
70229;BME280;57617;51.988;5.854;2023-03-25T11:24:46;99791.72;;;13.09;69.19
70229;BME280;57617;51.988;5.854;2023-03-25T11:27:17;99797.69;;;13.11;69.09
70229;BME280;57617;51.988;5.854;2023-03-25T11:29:50;99802.03;;;13.12;69.44
70229;BME280;57617;51.988;5.854;2023-03-25T11:32:22;99800.41;;;13.11;68.87
70229;BME280;57617;51.988;5.854;2023-03-25T11:34:49;99796.63;;;13.07;68.98
70229;BME280;57617;51.988;5.854;2023-03-25T11:37:18;99797.16;;;13.09;69.50
70229;BME280;57617;51.988;5.854;2023-03-25T11:39:50;99801.25;;;13.12;69.54
70229;BME280;57617;51.988;5.854;2023-03-25T11:44:42;99782.69;;;13.09;69.36
70229;BME280;57617;51.988;5.854;2023-03-25T11:47:20;99802.56;;;13.19;68.79
70229;BME280;57617;51.988;5.854;2023-03-25T11:49:48;99776.13;;;13.15;68.69
70229;BME280;57617;51.988;5.854;2023-03-25T11:52:17;99788.34;;;13.22;68.27
70229;BME280;57617;51.988;5.854;2023-03-25T11:54:44;99805.44;;;13.38;67.56
70229;BME280;57617;51.988;5.854;2023-03-25T11:57:13;99826.94;;;13.44;66.34
70229;BME280;57617;51.988;5.854;2023-03-25T11:59:48;99806.16;;;13.48;65.79
70229;BME280;57617;51.988;5.854;2023-03-25T12:02:19;99800.09;;;13.56;66.18
70229;BME280;57617;51.988;5.854;2023-03-25T12:05:02;99802.31;;;13.54;65.32
70229;BME280;57617;51.988;5.854;2023-03-25T12:07:28;99795.38;;;13.67;66.20
70229;BME280;57617;51.988;5.854;2023-03-25T12:09:55;99803.75;;;13.80;65.74
70229;BME280;57617;51.988;5.854;2023-03-25T12:15:17;99789.41;;;13.93;64.71
70229;BME280;57617;51.988;5.854;2023-03-25T12:17:51;99786.06;;;14.01;65.64
70229;BME280;57617;51.988;5.854;2023-03-25T12:28:44;99778.00;;;14.15;63.73
70229;BME280;57617;51.988;5.854;2023-03-25T12:43:35;99775.38;;;13.76;65.74
70229;BME280;57617;51.988;5.854;2023-03-25T12:50:48;99798.97;;;13.24;66.70
70229;BME280;57617;51.988;5.854;2023-03-25T12:56:43;99802.75;;;12.79;67.19
70229;BME280;57617;51.988;5.854;2023-03-25T12:59:39;99797.34;;;12.69;67.24
70229;BME280;57617;51.988;5.854;2023-03-25T13:05:35;99799.53;;;12.67;67.41
70229;BME280;57617;51.988;5.854;2023-03-25T13:08:55;99803.91;;;12.63;68.35
70229;BME280;57617;51.988;5.854;2023-03-25T13:11:27;99798.38;;;12.83;67.85
70229;BME280;57617;51.988;5.854;2023-03-25T13:13:56;99795.00;;;13.06;68.47
70229;BME280;57617;51.988;5.854;2023-03-25T13:16:26;99803.03;;;13.26;68.48
70229;BME280;57617;51.988;5.854;2023-03-25T13:19:00;99791.50;;;13.39;68.18
70229;BME280;57617;51.988;5.854;2023-03-25T13:21:30;99791.44;;;13.49;67.74
70229;BME280;57617;51.988;5.854;2023-03-25T13:24:04;99805.56;;;13.56;67.54
70229;BME280;57617;51.988;5.854;2023-03-25T13:26:31;99797.34;;;13.61;67.35
70229;BME280;57617;51.988;5.854;2023-03-25T13:29:03;99796.78;;;13.64;67.41
70229;BME280;57617;51.988;5.854;2023-03-25T13:31:39;99804.09;;;13.69;67.41
70229;BME280;57617;51.988;5.854;2023-03-25T13:37:24;99799.75;;;13.68;64.92
70229;BME280;57617;51.988;5.854;2023-03-25T13:40:01;99794.81;;;13.70;65.43
70229;BME280;57617;51.988;5.854;2023-03-25T13:45:21;99807.84;;;13.78;65.50
70229;BME280;57617;51.988;5.854;2023-03-25T13:48:33;99795.50;;;13.85;64.90
70229;BME280;57617;51.988;5.854;2023-03-25T13:50:38;99799.84;;;13.86;65.18
70229;BME280;57617;51.988;5.854;2023-03-25T13:53:09;99788.47;;;13.74;64.17
70229;BME280;57617;51.988;5.854;2023-03-25T13:55:52;99795.75;;;13.89;64.52
70229;BME280;57617;51.988;5.854;2023-03-25T14:12:06;99829.84;;;13.91;62.23
70229;BME280;57617;51.988;5.854;2023-03-25T14:14:40;99837.59;;;13.74;62.17
70229;BME280;57617;51.988;5.854;2023-03-25T14:17:06;99825.34;;;13.72;62.71
70229;BME280;57617;51.988;5.854;2023-03-25T14:19:35;99823.59;;;13.86;63.61
70229;BME280;57617;51.988;5.854;2023-03-25T14:22:23;99828.41;;;13.99;61.83
70229;BME280;57617;51.988;5.854;2023-03-25T14:24:51;99817.16;;;14.05;62.93
70229;BME280;57617;51.988;5.854;2023-03-25T14:27:32;99832.09;;;14.13;61.77
70229;BME280;57617;51.988;5.854;2023-03-25T14:30:10;99841.75;;;14.05;62.04
70229;BME280;57617;51.988;5.854;2023-03-25T14:32:42;99861.81;;;13.86;62.62
70229;BME280;57617;51.988;5.854;2023-03-25T14:43:32;99891.63;;;13.34;63.78
70229;BME280;57617;51.988;5.854;2023-03-25T14:48:41;99867.19;;;13.14;64.92
70229;BME280;57617;51.988;5.854;2023-03-25T14:53:50;99868.47;;;13.31;64.76
70229;BME280;57617;51.988;5.854;2023-03-25T14:56:21;99850.97;;;13.37;65.19
70229;BME280;57617;51.988;5.854;2023-03-25T14:58:52;99861.31;;;13.45;65.19
70229;BME280;57617;51.988;5.854;2023-03-25T15:01:19;99861.78;;;13.52;65.09
70229;BME280;57617;51.988;5.854;2023-03-25T15:03:45;99856.00;;;13.64;65.61
70229;BME280;57617;51.988;5.854;2023-03-25T15:06:17;99865.44;;;13.76;65.25
70229;BME280;57617;51.988;5.854;2023-03-25T15:08:54;99858.81;;;13.87;65.16